createdAt,value
2018-12-19T00:01:48.420Z,11.13
2018-12-19T00:04:17.678Z,10.93
2018-12-19T00:06:46.723Z,11.40
2018-12-19T00:09:15.578Z,11.27
2018-12-19T00:11:44.925Z,16.40
2018-12-19T00:14:13.829Z,14.73
2018-12-19T00:16:42.668Z,15.13
2018-12-19T00:19:11.506Z,13.70
2018-12-19T00:21:40.353Z,13.93
2018-12-19T00:24:09.415Z,12.60
2018-12-19T00:26:38.233Z,11.63
2018-12-19T00:29:07.711Z,11.50
2018-12-19T00:31:36.617Z,12.13
2018-12-19T00:34:06.009Z,11.57
2018-12-19T00:36:35.045Z,11.17
2018-12-19T00:39:09.490Z,11.60
2018-12-19T00:41:37.064Z,10.90
2018-12-19T00:44:05.873Z,10.90
2018-12-19T00:46:34.964Z,11.00
2018-12-19T00:49:03.904Z,10.23
2018-12-19T00:51:32.845Z,9.73
2018-12-19T00:54:01.689Z,10.13
2018-12-19T00:56:30.777Z,8.57
2018-12-19T00:59:00.741Z,7.97
2018-12-19T01:01:29.667Z,7.60
2018-12-19T01:03:58.733Z,7.97
2018-12-19T01:06:27.589Z,7.23
2018-12-19T01:08:56.410Z,6.43
2018-12-19T01:11:25.340Z,5.67
2018-12-19T01:13:54.105Z,5.40
2018-12-19T01:16:22.971Z,5.60
2018-12-19T01:18:52.075Z,6.10
2018-12-19T01:21:20.890Z,6.23
2018-12-19T01:23:49.749Z,5.90
2018-12-19T01:26:18.656Z,6.43
2018-12-19T01:28:47.525Z,6.20
2018-12-19T01:31:16.360Z,5.60
2018-12-19T01:33:45.730Z,6.20
2018-12-19T01:36:14.518Z,5.70
2018-12-19T01:38:43.637Z,6.10
2018-12-19T01:41:12.454Z,5.53
2018-12-19T01:43:41.373Z,6.10
2018-12-19T01:46:10.209Z,6.13
2018-12-19T01:48:39.300Z,6.10
2018-12-19T01:51:08.105Z,5.60
2018-12-19T01:53:36.910Z,6.03
2018-12-19T01:56:05.821Z,5.67
2018-12-19T01:58:34.612Z,5.80
2018-12-19T02:01:03.681Z,5.90
2018-12-19T02:03:32.717Z,6.13
2018-12-19T02:06:01.997Z,5.57
2018-12-19T02:08:30.793Z,5.93
2018-12-19T02:10:59.667Z,6.17
2018-12-19T02:13:28.605Z,6.10
2018-12-19T02:15:57.583Z,5.70
2018-12-19T02:18:26.381Z,6.10
2018-12-19T02:20:56.032Z,5.77
2018-12-19T02:23:24.889Z,6.10
2018-12-19T02:25:54.578Z,5.97
2018-12-19T02:28:24.587Z,6.93
2018-12-19T02:30:53.432Z,7.67
2018-12-19T02:33:22.288Z,8.03
2018-12-19T02:35:51.095Z,8.50
2018-12-19T02:38:19.905Z,8.60
2018-12-19T02:40:48.793Z,9.13
2018-12-19T02:43:17.735Z,9.07
2018-12-19T02:45:46.532Z,9.33
2018-12-19T02:48:15.618Z,9.67
2018-12-19T02:50:44.403Z,9.20
2018-12-19T02:53:13.232Z,9.43
2018-12-19T02:55:42.261Z,9.00
2018-12-19T02:58:11.084Z,9.77
2018-12-19T03:00:39.902Z,9.00
2018-12-19T03:03:08.982Z,9.33
2018-12-19T03:05:37.856Z,9.00
2018-12-19T03:08:06.652Z,19.40
2018-12-19T03:10:35.453Z,12.53
2018-12-19T03:13:04.302Z,11.80
2018-12-19T03:15:34.173Z,11.07
2018-12-19T03:18:03.057Z,8.60
2018-12-19T03:20:31.869Z,9.77
2018-12-19T03:23:01.210Z,10.10
2018-12-19T03:25:30.085Z,9.73
2018-12-19T03:27:58.878Z,8.17
2018-12-19T03:30:27.802Z,8.03
2018-12-19T03:32:56.913Z,9.00
2018-12-19T03:35:27.769Z,9.33
2018-12-19T03:37:56.828Z,8.57
2018-12-19T03:40:26.148Z,8.77
2018-12-19T03:42:54.937Z,8.73
2018-12-19T03:45:23.956Z,8.77
2018-12-19T03:47:52.727Z,8.30
2018-12-19T03:50:22.101Z,8.53
2018-12-19T03:52:51.250Z,8.10
2018-12-19T03:55:21.265Z,8.90
2018-12-19T03:57:50.639Z,8.60
2018-12-19T04:00:19.494Z,8.80
2018-12-19T04:02:48.902Z,8.67
2018-12-19T04:05:18.250Z,8.73
2018-12-19T04:07:47.046Z,8.57
2018-12-19T04:10:16.126Z,8.83
2018-12-19T04:12:44.913Z,8.70
2018-12-19T04:15:14.686Z,9.03
2018-12-19T04:17:43.498Z,10.67
2018-12-19T04:20:12.861Z,10.03
2018-12-19T04:22:42.277Z,9.17
2018-12-19T04:25:11.166Z,9.97
2018-12-19T04:27:40.037Z,9.30
2018-12-19T04:30:08.883Z,9.87
2018-12-19T04:32:38.388Z,9.43
2018-12-19T04:35:07.240Z,9.73
2018-12-19T04:37:36.151Z,9.67
2018-12-19T04:40:06.051Z,14.57
2018-12-19T04:42:35.064Z,10.63
2018-12-19T04:45:04.554Z,10.33
2018-12-19T04:47:33.464Z,11.10
2018-12-19T04:50:02.348Z,13.17
2018-12-19T04:52:31.150Z,11.17
2018-12-19T04:54:59.960Z,12.40
2018-12-19T04:57:28.773Z,18.50
2018-12-19T04:59:57.823Z,12.17
2018-12-19T05:02:26.635Z,11.77
2018-12-19T05:04:55.882Z,14.00
2018-12-19T05:07:24.895Z,11.67
2018-12-19T05:09:53.689Z,11.90
2018-12-19T05:12:22.515Z,12.20
2018-12-19T05:14:51.419Z,10.70
2018-12-19T05:17:20.241Z,11.60
2018-12-19T05:19:49.352Z,12.43
2018-12-19T05:22:18.145Z,14.03
2018-12-19T05:24:47.356Z,12.97
2018-12-19T05:27:16.224Z,12.30
2018-12-19T05:29:45.025Z,13.57
2018-12-19T05:32:13.872Z,11.87
2018-12-19T05:34:42.782Z,11.43
2018-12-19T05:37:11.581Z,11.30
2018-12-19T05:39:40.381Z,11.90
2018-12-19T05:42:09.181Z,11.40
2018-12-19T05:44:37.983Z,13.40
2018-12-19T05:47:06.861Z,15.53
2018-12-19T05:49:35.977Z,14.67
2018-12-19T05:52:04.947Z,14.73
2018-12-19T05:54:34.272Z,13.03
2018-12-19T05:57:03.220Z,12.13
2018-12-19T05:59:32.052Z,12.73
2018-12-19T06:02:00.929Z,18.07
2018-12-19T06:04:29.880Z,17.93
2018-12-19T06:06:58.762Z,19.50
2018-12-19T06:09:27.671Z,19.03
2018-12-19T06:11:56.740Z,21.07
2018-12-19T06:14:25.612Z,21.20
2018-12-19T06:16:54.441Z,19.90
2018-12-19T06:19:23.301Z,18.40
2018-12-19T06:21:52.095Z,17.87
2018-12-19T06:24:21.168Z,18.03
2018-12-19T06:26:49.961Z,17.00
2018-12-19T06:29:18.847Z,18.77
2018-12-19T06:31:47.658Z,20.53
2018-12-19T06:34:17.566Z,19.00
2018-12-19T06:36:46.362Z,17.77
2018-12-19T06:39:15.401Z,17.17
2018-12-19T06:41:44.295Z,15.73
2018-12-19T06:44:13.226Z,15.87
2018-12-19T06:46:42.114Z,15.83
2018-12-19T06:49:10.909Z,16.97
2018-12-19T06:51:39.708Z,16.97
2018-12-19T06:54:08.692Z,16.93
2018-12-19T06:56:37.541Z,17.23
2018-12-19T06:59:06.433Z,16.20
2018-12-19T07:01:35.247Z,18.00
2018-12-19T07:04:04.222Z,16.97
2018-12-19T07:06:33.130Z,15.97
2018-12-19T07:09:02.094Z,16.93
2018-12-19T07:11:31.211Z,16.73
2018-12-19T07:14:00.025Z,17.57
2018-12-19T07:16:29.069Z,33.83
2018-12-19T07:18:58.192Z,39.87
2018-12-19T07:21:27.101Z,32.23
2018-12-19T07:23:57.019Z,22.73
2018-12-19T07:26:25.841Z,22.63
2018-12-19T07:28:54.873Z,23.30
2018-12-19T07:31:23.763Z,22.70
2018-12-19T07:33:52.592Z,20.20
2018-12-19T07:36:21.396Z,17.37
2018-12-19T07:38:50.210Z,24.43
2018-12-19T07:41:19.035Z,25.80
2018-12-19T07:43:47.997Z,43.20
2018-12-19T07:46:19.868Z,33.50
2018-12-19T07:48:47.714Z,26.00
2018-12-19T07:51:17.850Z,23.77
2018-12-19T07:53:46.663Z,20.37
2018-12-19T07:56:15.842Z,14.03
2018-12-19T07:58:45.681Z,15.37
2018-12-19T08:01:14.592Z,15.00
2018-12-19T08:03:43.409Z,14.37
2018-12-19T08:06:12.207Z,13.93
2018-12-19T08:08:41.141Z,15.37
2018-12-19T08:11:10.013Z,16.60
2018-12-19T08:13:38.949Z,15.00
2018-12-19T08:16:07.769Z,15.13
2018-12-19T08:18:36.589Z,15.53
2018-12-19T08:21:05.449Z,13.73
2018-12-19T08:23:35.202Z,15.50
2018-12-19T08:26:04.072Z,15.13
2018-12-19T08:28:33.137Z,15.53
2018-12-19T08:31:02.200Z,18.10
2018-12-19T08:33:31.509Z,19.33
2018-12-19T08:36:00.269Z,18.67
2018-12-19T08:38:29.110Z,18.73
2018-12-19T08:40:58.918Z,19.63
2018-12-19T08:43:27.860Z,18.90
2018-12-19T08:45:57.106Z,20.63
2018-12-19T08:48:25.893Z,20.33
2018-12-19T08:50:55.020Z,21.10
2018-12-19T08:53:23.789Z,21.47
2018-12-19T08:55:52.686Z,22.33
2018-12-19T08:58:21.584Z,21.63
2018-12-19T09:00:52.246Z,21.23
2018-12-19T09:03:21.097Z,23.67
2018-12-19T09:05:49.913Z,21.33
2018-12-19T09:08:18.899Z,21.77
2018-12-19T09:10:47.709Z,22.17
2018-12-19T09:13:16.637Z,16.93
2018-12-19T09:15:50.494Z,9.47
2018-12-19T09:18:20.464Z,8.87
2018-12-19T09:20:49.470Z,8.10
2018-12-19T09:23:18.288Z,9.90
2018-12-19T09:25:47.094Z,9.67
2018-12-19T09:28:15.912Z,9.53
2018-12-19T09:30:44.853Z,9.30
2018-12-19T09:33:13.633Z,9.80
2018-12-19T09:35:42.469Z,8.80
2018-12-19T09:38:19.878Z,9.60
2018-12-19T09:40:48.697Z,10.10
2018-12-19T09:43:17.502Z,8.90
2018-12-19T09:45:46.480Z,9.40
2018-12-19T09:48:15.433Z,9.63
2018-12-19T09:50:44.281Z,11.17
2018-12-19T09:53:13.454Z,10.93
2018-12-19T09:55:42.515Z,9.60
2018-12-19T09:58:11.312Z,10.50
2018-12-19T10:00:40.104Z,10.37
2018-12-19T10:03:08.910Z,9.93
2018-12-19T10:05:37.708Z,9.10
2018-12-19T10:08:06.505Z,10.67
2018-12-19T10:10:35.297Z,12.40
2018-12-19T10:13:04.338Z,6.63
2018-12-19T10:15:33.138Z,5.90
2018-12-19T10:18:01.982Z,5.97
2018-12-19T10:20:30.745Z,6.30
2018-12-19T10:22:59.626Z,6.80
2018-12-19T10:25:28.504Z,6.47
2018-12-19T10:27:57.569Z,6.77
2018-12-19T10:30:28.016Z,6.80
2018-12-19T10:32:57.702Z,6.83
2018-12-19T10:35:27.324Z,6.20
2018-12-19T10:37:56.254Z,6.40
2018-12-19T10:40:26.634Z,7.73
2018-12-19T10:42:56.138Z,8.67
2018-12-19T10:45:25.631Z,7.23
2018-12-19T10:47:55.044Z,8.17
2018-12-19T10:50:24.498Z,7.40
2018-12-19T10:52:54.514Z,8.97
2018-12-19T10:55:23.281Z,8.53
2018-12-19T10:57:52.454Z,10.23
2018-12-19T11:00:27.109Z,8.63
2018-12-19T11:02:56.565Z,8.70
2018-12-19T11:05:26.626Z,8.90
2018-12-19T11:07:55.417Z,8.27
2018-12-19T11:10:24.338Z,8.50
2018-12-19T11:12:53.175Z,9.10
2018-12-19T11:15:21.998Z,9.03
2018-12-19T11:17:50.813Z,9.37
2018-12-19T11:20:20.223Z,9.93
2018-12-19T11:22:50.078Z,15.60
2018-12-19T11:25:19.538Z,35.77
2018-12-19T11:27:48.941Z,35.70
2018-12-19T11:30:18.429Z,32.83
2018-12-19T11:32:47.229Z,17.40
2018-12-19T11:35:16.101Z,6.33
2018-12-19T11:37:44.861Z,7.87
2018-12-19T11:40:13.757Z,7.50
2018-12-19T11:42:42.566Z,8.27
2018-12-19T11:45:11.507Z,8.20
2018-12-19T11:47:40.288Z,8.00
2018-12-19T11:50:09.354Z,8.33
2018-12-19T11:52:38.838Z,8.17
2018-12-19T11:55:08.373Z,9.80
2018-12-19T11:57:37.883Z,9.43
2018-12-19T12:00:08.846Z,12.57
2018-12-19T12:02:37.671Z,11.87
2018-12-19T12:05:06.455Z,9.03
2018-12-19T12:07:35.705Z,7.80
2018-12-19T12:10:05.569Z,9.60
2018-12-19T12:12:34.369Z,8.20
2018-12-19T12:15:05.269Z,8.50
2018-12-19T12:17:35.787Z,11.00
2018-12-19T12:20:06.609Z,9.47
2018-12-19T12:22:35.413Z,8.40
2018-12-19T12:25:05.287Z,8.50
2018-12-19T12:27:34.162Z,9.00
2018-12-19T12:30:03.305Z,8.70
2018-12-19T12:32:32.168Z,8.23
2018-12-19T12:35:01.020Z,8.20
2018-12-19T12:37:30.019Z,8.97
2018-12-19T12:39:58.860Z,10.40
2018-12-19T12:42:27.669Z,8.27
2018-12-19T12:44:57.865Z,8.30
2018-12-19T12:47:26.872Z,10.07
2018-12-19T12:49:55.659Z,8.53
2018-12-19T12:52:24.477Z,8.43
2018-12-19T12:54:53.267Z,6.97
2018-12-19T12:57:22.066Z,8.83
2018-12-19T12:59:50.893Z,7.00
2018-12-19T13:02:19.713Z,6.87
2018-12-19T13:04:48.540Z,6.97
2018-12-19T13:07:17.334Z,6.47
2018-12-19T13:09:46.313Z,5.67
2018-12-19T13:12:15.068Z,6.93
2018-12-19T13:14:43.977Z,8.73
2018-12-19T13:17:13.070Z,7.40
2018-12-19T13:19:41.952Z,8.23
2018-12-19T13:22:12.365Z,8.30
2018-12-19T13:24:41.226Z,7.33
2018-12-19T13:27:10.345Z,4.97
2018-12-19T13:29:39.225Z,5.73
2018-12-19T13:32:08.673Z,5.40
2018-12-19T13:34:37.501Z,5.17
2018-12-19T13:37:06.383Z,5.87
2018-12-19T13:39:35.253Z,4.83
2018-12-19T13:42:05.765Z,6.57
2018-12-19T13:44:34.820Z,5.87
2018-12-19T13:47:03.749Z,5.40
2018-12-19T13:49:32.562Z,6.20
2018-12-19T13:52:01.394Z,6.60
2018-12-19T13:54:30.272Z,7.40
2018-12-19T13:56:59.154Z,8.03
2018-12-19T13:59:27.950Z,6.60
2018-12-19T14:01:56.806Z,7.70
2018-12-19T14:04:25.653Z,9.10
2018-12-19T14:06:54.437Z,9.60
2018-12-19T14:09:23.229Z,9.37
2018-12-19T14:11:52.253Z,8.27
2018-12-19T14:20:04.535Z,9.17
2018-12-19T14:22:33.451Z,16.80
2018-12-19T14:25:02.358Z,67.67
2018-12-19T14:27:31.286Z,29.07
2018-12-19T14:30:00.190Z,37.90
2018-12-19T14:32:29.067Z,9.47
2018-12-19T14:34:57.882Z,7.87
2018-12-19T14:37:26.713Z,7.03
2018-12-19T14:39:55.514Z,9.33
2018-12-19T14:42:24.441Z,7.30
2018-12-19T14:44:53.281Z,10.97
2018-12-19T14:47:22.102Z,7.47
2018-12-19T14:49:50.862Z,8.83
2018-12-19T14:52:19.685Z,14.20
2018-12-19T14:54:48.499Z,16.33
2018-12-19T14:57:17.516Z,10.53
2018-12-19T14:59:46.301Z,7.97
2018-12-19T15:02:15.104Z,9.73
2018-12-19T15:04:43.945Z,13.57
2018-12-19T15:07:12.776Z,9.10
2018-12-19T15:09:41.597Z,8.50
2018-12-19T15:12:10.539Z,8.90
2018-12-19T15:14:39.392Z,10.40
2018-12-19T15:17:13.865Z,12.63
2018-12-19T15:19:38.991Z,7.83
2018-12-19T15:22:07.813Z,9.37
2018-12-19T15:24:36.609Z,7.90
2018-12-19T15:27:05.628Z,4.20
2018-12-19T15:29:34.485Z,5.37
2018-12-19T15:32:03.288Z,8.00
2018-12-19T15:34:32.110Z,6.13
2018-12-19T15:37:02.254Z,6.80
2018-12-19T15:39:31.127Z,6.97
2018-12-19T15:41:59.930Z,4.47
2018-12-19T15:44:48.220Z,4.97
2018-12-19T15:47:17.032Z,4.80
2018-12-19T15:50:04.344Z,4.80
2018-12-19T15:52:33.214Z,6.87
2018-12-19T15:55:14.405Z,7.13
2018-12-19T15:57:43.499Z,8.00
2018-12-19T16:00:15.564Z,7.33
2018-12-19T16:02:44.615Z,5.77
2018-12-19T16:05:13.553Z,5.27
2018-12-19T16:07:46.346Z,5.90
2018-12-19T16:10:15.235Z,5.80
2018-12-19T16:15:47.018Z,8.53
2018-12-19T16:18:15.988Z,9.90
2018-12-19T16:20:44.846Z,11.83
2018-12-19T16:23:13.888Z,11.47
2018-12-19T16:25:42.839Z,12.10
2018-12-19T16:28:11.775Z,13.23
2018-12-19T16:30:40.601Z,11.20
2018-12-19T16:33:09.429Z,14.30
2018-12-19T16:35:38.206Z,17.07
2018-12-19T16:38:07.116Z,14.80
2018-12-19T16:40:35.953Z,8.37
2018-12-19T16:43:04.850Z,6.80
2018-12-19T16:45:33.812Z,7.53
2018-12-19T16:48:14.508Z,7.50
2018-12-19T16:50:43.422Z,9.10
2018-12-19T16:53:12.370Z,13.80
2018-12-19T16:55:41.437Z,12.37
2018-12-19T16:58:10.256Z,11.03
2018-12-19T17:00:39.298Z,12.23
2018-12-19T17:03:08.655Z,11.50
2018-12-19T17:05:41.662Z,10.80
2018-12-19T17:08:18.470Z,11.73
2018-12-19T17:10:51.239Z,12.50
2018-12-19T17:13:20.147Z,13.57
2018-12-19T17:15:49.039Z,13.83
2018-12-19T17:18:18.070Z,14.43
2018-12-19T17:20:46.867Z,15.27
2018-12-19T17:23:15.693Z,18.83
2018-12-19T17:25:44.491Z,18.17
2018-12-19T17:28:13.278Z,16.47
2018-12-19T17:30:42.102Z,17.50
2018-12-19T17:33:10.885Z,16.73
2018-12-19T17:35:39.697Z,16.40
2018-12-19T17:38:08.489Z,17.13
2018-12-19T17:40:37.309Z,18.87
2018-12-19T17:43:06.227Z,19.00
2018-12-19T17:45:35.041Z,19.63
2018-12-19T17:48:03.913Z,20.93
2018-12-19T17:50:32.862Z,29.30
2018-12-19T17:53:01.662Z,23.33
2018-12-19T17:55:30.473Z,27.07
2018-12-19T17:57:59.290Z,20.40
2018-12-19T18:00:28.189Z,20.27
2018-12-19T18:02:56.982Z,25.43
2018-12-19T18:05:25.793Z,27.50
2018-12-19T18:07:54.576Z,22.83
2018-12-19T18:10:23.406Z,21.40
2018-12-19T18:12:52.206Z,20.97
2018-12-19T18:15:21.017Z,22.37
2018-12-19T18:17:49.942Z,22.47
2018-12-19T18:20:18.792Z,23.60
2018-12-19T18:22:47.606Z,22.57
2018-12-19T18:25:16.590Z,25.80
2018-12-19T18:27:45.380Z,27.60
2018-12-19T18:30:14.341Z,26.37
2018-12-19T18:32:43.168Z,23.70
2018-12-19T18:35:12.059Z,22.87
2018-12-19T18:37:40.929Z,23.57
2018-12-19T18:40:09.790Z,23.77
2018-12-19T18:42:38.584Z,24.53
2018-12-19T18:45:11.915Z,23.70
2018-12-19T18:47:38.347Z,25.07
2018-12-19T18:50:07.725Z,21.83
2018-12-19T18:52:36.756Z,20.37
2018-12-19T18:55:06.091Z,13.97
2018-12-19T18:57:34.920Z,11.43
2018-12-19T19:00:05.427Z,4.60
2018-12-19T19:02:34.289Z,4.47
2018-12-19T19:05:03.647Z,4.60
2018-12-19T19:07:32.677Z,6.83
2018-12-19T19:10:01.691Z,23.10
2018-12-19T19:12:30.475Z,27.70
2018-12-19T19:14:59.434Z,14.73
2018-12-19T19:17:28.316Z,10.60
2018-12-19T19:19:57.370Z,9.93
2018-12-19T19:22:26.262Z,9.40
2018-12-19T19:24:55.077Z,11.27
2018-12-19T19:27:24.013Z,10.33
2018-12-19T19:29:52.930Z,10.93
2018-12-19T19:32:21.933Z,10.20
2018-12-19T19:34:50.760Z,10.90
2018-12-19T19:37:19.714Z,10.70
2018-12-19T19:39:48.517Z,9.53
2018-12-19T19:42:17.338Z,7.80
2018-12-19T19:44:46.194Z,8.57
2018-12-19T19:47:16.263Z,6.73
2018-12-19T19:49:45.169Z,6.23
2018-12-19T23:03:48.468Z,3.03
2018-12-19T23:06:18.142Z,4.50
2018-12-19T23:08:49.008Z,4.20
